Main page
METAR-TAF:

METAR-TAF

Airports :

Chlef International Airport

Chlef, Algeria

latitude: 36-13N, longitude: 001-20E, elevation: 143 m

Current weather observation

The report was made 20 minutes ago, at 10:00 UTC
Calm wind
Temperature 28°C
Humidity 32%
Pressure 1013 hPa
Visibility 10 km or more
no clouds below 1500 m and no cumulonimbus

METAR: DAOI 091000Z 00000KT CAVOK 28/10 Q1013

Time: 11:20 (10:20 UTC)

Forecast

The report was made 5 hours and 20 minutes ago, at 05:00 UTC
Forecast valid from 09 at 06 UTC to 10 at 06 UTC
Wind 15 kt from the West/Southwest
Visibility 10 km or more
no clouds below 1500 m and no cumulonimbus
Becoming
from 09 at 10 UTC to 09 at 12 UTC
Wind 10 kt from the South/Southwest
Becoming
from 09 at 20 UTC to 09 at 22 UTC
Wind 2 kt from variable directions

TAF: DAOI 090500Z 0906/1006 24015KT CAVOK BECMG 0910/0912 20010KT BECMG 0920/0922 VRB02KT

Weather observations and forecasts of more than 4000 airports (METAR and TAF reports).

The available stations are represented by yellow and red dots on the map.

Hover mouse over dot to see the name of the station.

Then click to see weather observations and forecasts.

To change the map : click on the green buttons with a black cross to zoom in, on the green button with a dash to zoom out, or on the green arrows for adjacent maps.


METAR-TAF: